Time;durP1;ratioP1;P1;durP2;ratioP2;P2;SDS_P1;SDS_P2;PMS_P1;PMS_P2;Temp;Humidity;BMP_temperature;BMP_pressure;BME280_temperature;BME280_humidity;BME280_pressure;Samples;Min_cycle;Max_cycle;Signal;HPM_P1;HPM_P2
2021/05/30 04:12:36;;;;;;;0.70;0.70;;;10.80;99.90;;;;;;4915372;23;20245;-74
2021/05/30 04:15:04;;;;;;;0.80;0.80;;;11.00;99.90;;;;;;4900353;29;20232;-74
2021/05/30 04:17:32;;;;;;;0.60;0.60;;;11.00;99.90;;;;;;4900081;29;20866;-74
2021/05/30 04:19:59;;;;;;;0.70;0.70;;;11.00;99.90;;;;;;4900249;29;20562;-73
2021/05/30 04:22:27;;;;;;;0.70;0.70;;;11.00;99.90;;;;;;4882801;29;20228;-73
2021/05/30 04:24:54;;;;;;;0.70;0.70;;;11.00;99.90;;;;;;4896960;23;20832;-70
2021/05/30 04:27:21;;;;;;;0.80;0.80;;;11.00;99.90;;;;;;4900010;29;20272;-70
2021/05/30 04:29:49;;;;;;;0.75;0.75;;;11.10;99.90;;;;;;4900342;29;20203;-69
2021/05/30 04:32:17;;;;;;;0.70;0.70;;;11.10;99.90;;;;;;4900144;29;20673;-69
2021/05/30 04:34:44;;;;;;;0.75;0.75;;;11.10;99.90;;;;;;4899894;29;20259;-70
2021/05/30 04:37:11;;;;;;;0.70;0.70;;;11.10;99.90;;;;;;4881259;29;20212;-70
2021/05/30 04:39:39;;;;;;;0.75;0.75;;;11.30;99.90;;;;;;4881390;29;20207;-69
2021/05/30 04:42:08;;;;;;;0.70;0.70;;;11.10;99.90;;;;;;4881282;29;20241;-69
2021/05/30 04:44:35;;;;;;;0.80;0.80;;;11.20;99.90;;;;;;4881125;29;20738;-69
2021/05/30 04:47:04;;;;;;;0.70;0.70;;;11.20;99.90;;;;;;4881085;29;20391;-68
2021/05/30 04:49:31;;;;;;;0.70;0.70;;;11.20;99.90;;;;;;4881465;29;20215;-69
2021/05/30 04:51:59;;;;;;;0.70;0.70;;;11.30;99.90;;;;;;4880973;29;20200;-68
2021/05/30 04:54:26;;;;;;;0.70;0.70;;;11.30;99.90;;;;;;4880999;29;20264;-70
2021/05/30 04:56:53;;;;;;;0.90;0.90;;;11.30;99.90;;;;;;4880704;29;20280;-69
2021/05/30 04:59:21;;;;;;;0.70;0.70;;;11.30;99.90;;;;;;4880898;29;20208;-68
2021/05/30 05:01:48;;;;;;;0.80;0.80;;;11.20;99.90;;;;;;4881095;29;20646;-69
2021/05/30 05:04:17;;;;;;;0.60;0.60;;;11.20;99.90;;;;;;4881055;29;20204;-70
2021/05/30 05:06:44;;;;;;;0.70;0.70;;;11.20;99.90;;;;;;4880405;29;20617;-69
2021/05/30 05:09:11;;;;;;;0.60;0.60;;;11.30;99.90;;;;;;4880667;29;20244;-68
2021/05/30 05:11:39;;;;;;;0.70;0.70;;;11.40;99.90;;;;;;4880760;29;20212;-70
2021/05/30 05:14:06;;;;;;;0.70;0.70;;;11.40;99.90;;;;;;4880170;29;20669;-69
2021/05/30 05:16:34;;;;;;;0.70;0.70;;;11.40;99.90;;;;;;4880557;29;20276;-70
2021/05/30 05:19:02;;;;;;;0.77;0.77;;;11.50;99.90;;;;;;4880886;29;20635;-69
2021/05/30 05:21:31;;;;;;;0.70;0.70;;;11.50;99.90;;;;;;4880436;29;20311;-70
2021/05/30 05:23:58;;;;;;;0.70;0.70;;;11.50;99.90;;;;;;4880605;29;20250;-70
2021/05/30 05:26:26;;;;;;;0.70;0.70;;;11.60;99.90;;;;;;4880113;29;20291;-70
2021/05/30 05:28:53;;;;;;;0.70;0.70;;;11.60;99.90;;;;;;4880635;29;20212;-70
2021/05/30 05:31:21;;;;;;;0.80;0.80;;;11.60;99.90;;;;;;4880526;29;20208;-69
2021/05/30 05:33:48;;;;;;;0.70;0.70;;;11.80;99.90;;;;;;4880408;29;20212;-70
2021/05/30 05:36:21;;;;;;;0.70;0.70;;;11.90;99.90;;;;;;4880245;29;20240;-70
2021/05/30 05:38:50;;;;;;;0.77;0.77;;;11.90;99.90;;;;;;4880422;29;20240;-70
2021/05/30 05:41:18;;;;;;;0.70;0.70;;;12.00;99.90;;;;;;4880158;29;20224;-71
2021/05/30 05:43:45;;;;;;;0.80;0.80;;;11.90;99.90;;;;;;4880200;29;20208;-70
2021/05/30 05:46:12;;;;;;;0.70;0.70;;;11.90;99.90;;;;;;4879995;29;20703;-70
2021/05/30 05:48:40;;;;;;;0.70;0.70;;;11.90;99.90;;;;;;4880209;29;20269;-70
2021/05/30 05:51:07;;;;;;;0.70;0.70;;;12.00;99.90;;;;;;4880095;29;20204;-70
2021/05/30 05:53:35;;;;;;;0.70;0.70;;;12.00;99.90;;;;;;4879921;29;20256;-70
2021/05/30 05:56:03;;;;;;;0.75;0.75;;;12.00;99.90;;;;;;4879786;29;20236;-70
2021/05/30 05:58:31;;;;;;;0.60;0.60;;;12.00;99.90;;;;;;4879919;29;20630;-70
2021/05/30 06:00:59;;;;;;;0.75;0.75;;;12.00;99.90;;;;;;4879735;29;20219;-70
2021/05/30 06:03:27;;;;;;;0.70;0.70;;;12.00;99.90;;;;;;4879768;29;20288;-69
2021/05/30 06:05:54;;;;;;;0.70;0.70;;;12.10;99.90;;;;;;4880378;29;20228;-70
2021/05/30 06:08:22;;;;;;;0.70;0.70;;;12.20;99.90;;;;;;4889604;29;20256;-70
2021/05/30 06:10:49;;;;;;;0.77;0.77;;;12.30;99.90;;;;;;4879530;29;20212;-70
2021/05/30 06:13:17;;;;;;;0.70;0.70;;;12.10;99.90;;;;;;4879720;29;20581;-70
2021/05/30 06:15:45;;;;;;;0.50;0.50;;;12.20;99.90;;;;;;4879274;29;20263;-69
2021/05/30 06:18:13;;;;;;;0.70;0.70;;;12.20;99.90;;;;;;4879621;29;20291;-70
2021/05/30 06:20:42;;;;;;;0.70;0.70;;;12.20;99.90;;;;;;4879314;29;20268;-70
2021/05/30 06:23:10;;;;;;;0.70;0.70;;;12.40;99.90;;;;;;4879651;29;20204;-70
2021/05/30 06:25:38;;;;;;;0.60;0.60;;;12.50;99.90;;;;;;4878257;29;20590;-68
2021/05/30 06:28:05;;;;;;;0.70;0.70;;;12.60;99.90;;;;;;4879429;29;20630;-69
2021/05/30 06:30:37;;;;;;;0.60;0.60;;;12.70;99.90;;;;;;4879270;29;20276;-69
2021/05/30 06:33:06;;;;;;;0.60;0.60;;;12.90;99.90;;;;;;4879208;29;20239;-70
2021/05/30 06:35:35;;;;;;;0.70;0.70;;;13.00;99.90;;;;;;4878818;29;20232;-69
2021/05/30 06:38:02;;;;;;;0.60;0.60;;;13.10;99.90;;;;;;4879170;29;20208;-71
2021/05/30 06:40:30;;;;;;;0.50;0.50;;;13.20;99.90;;;;;;4879262;29;20256;-70
2021/05/30 06:42:57;;;;;;;0.70;0.70;;;13.20;99.90;;;;;;4879074;29;20224;-71
2021/05/30 06:45:25;;;;;;;0.60;0.60;;;13.20;99.90;;;;;;4878832;29;20262;-71
2021/05/30 06:47:55;;;;;;;0.70;0.70;;;13.10;99.90;;;;;;4878843;29;20263;-71
2021/05/30 06:50:24;;;;;;;0.70;0.70;;;13.10;99.90;;;;;;4879178;29;20256;-72
2021/05/30 06:52:51;;;;;;;0.60;0.60;;;12.80;99.90;;;;;;4878989;29;20625;-74
2021/05/30 06:55:21;;;;;;;0.60;0.60;;;12.80;99.90;;;;;;4878516;29;20259;-70
2021/05/30 06:57:48;;;;;;;0.70;0.70;;;12.80;99.90;;;;;;4878843;29;20212;-71
2021/05/30 07:00:17;;;;;;;0.60;0.60;;;13.00;99.90;;;;;;4878699;29;20603;-74
2021/05/30 07:02:44;;;;;;;0.50;0.50;;;13.10;99.90;;;;;;4878413;29;20227;-76
2021/05/30 07:05:14;;;;;;;0.50;0.50;;;13.20;99.90;;;;;;4878264;29;20271;-70
2021/05/30 07:07:41;;;;;;;0.68;0.68;;;13.60;99.90;;;;;;4878669;29;20326;-71
2021/05/30 07:10:11;;;;;;;0.60;0.60;;;13.70;99.90;;;;;;4878633;29;20746;-70
2021/05/30 07:12:39;;;;;;;0.60;0.60;;;13.90;99.80;;;;;;4878546;29;20254;-70
2021/05/30 07:15:07;;;;;;;0.60;0.60;;;14.20;99.40;;;;;;4878471;29;20263;-70
2021/05/30 07:17:37;;;;;;;0.60;0.60;;;14.20;98.70;;;;;;4878383;29;20737;-69
2021/05/30 07:20:07;;;;;;;0.60;0.60;;;14.50;98.90;;;;;;4878452;29;20248;-70
2021/05/30 07:22:35;;;;;;;0.50;0.50;;;14.60;97.20;;;;;;4877322;29;20258;-71
2021/05/30 07:25:04;;;;;;;0.60;0.60;;;14.80;96.50;;;;;;4878346;29;20224;-73
2021/05/30 07:27:35;;;;;;;0.60;0.60;;;14.80;95.40;;;;;;4878566;29;20287;-75
2021/05/30 07:30:03;;;;;;;0.60;0.60;;;14.90;94.70;;;;;;4878633;29;20212;-72
2021/05/30 07:32:30;;;;;;;0.50;0.50;;;14.80;94.30;;;;;;4878892;29;20232;-72
2021/05/30 07:34:57;;;;;;;0.50;0.50;;;15.10;94.50;;;;;;4879204;29;20204;-75
2021/05/30 07:37:25;;;;;;;0.50;0.50;;;15.20;93.40;;;;;;4878290;29;20212;-74
2021/05/30 07:39:53;;;;;;;0.50;0.50;;;15.10;92.70;;;;;;4878639;29;20625;-72
2021/05/30 07:42:20;;;;;;;0.60;0.60;;;15.20;93.70;;;;;;4878503;29;20266;-71
2021/05/30 07:44:48;;;;;;;0.57;0.57;;;15.20;99.90;;;;;;4878415;29;20208;-71
2021/05/30 07:47:15;;;;;;;0.50;0.50;;;15.20;92.60;;;;;;4874931;29;20205;-71
2021/05/30 07:49:43;;;;;;;0.40;0.40;;;15.30;92.70;;;;;;4867706;29;20243;-71
2021/05/30 07:52:10;;;;;;;0.50;0.50;;;15.20;93.30;;;;;;4859455;29;20250;-70
2021/05/30 07:54:37;;;;;;;0.50;0.50;;;15.30;93.90;;;;;;4859838;29;20232;-70
2021/05/30 07:57:06;;;;;;;0.50;0.50;;;14.90;90.00;;;;;;4859339;29;20235;-69
2021/05/30 07:59:34;;;;;;;0.50;0.50;;;14.80;90.10;;;;;;4859726;29;20260;-68
2021/05/30 08:02:02;;;;;;;0.50;0.50;;;14.80;90.80;;;;;;4859454;29;20288;-68
2021/05/30 08:04:30;;;;;;;0.60;0.60;;;14.70;90.70;;;;;;4873027;29;20199;-69
2021/05/30 08:06:57;;;;;;;0.60;0.60;;;14.60;91.20;;;;;;4877716;29;20274;-74
2021/05/30 08:09:24;;;;;;;0.60;0.60;;;14.40;90.00;;;;;;4878303;29;20244;-74
2021/05/30 08:11:53;;;;;;;0.60;0.60;;;14.30;90.80;;;;;;4878155;29;20272;-74
2021/05/30 08:14:22;;;;;;;0.60;0.60;;;14.40;90.60;;;;;;4878234;29;20275;-75
2021/05/30 08:16:49;;;;;;;0.50;0.50;;;14.60;90.50;;;;;;4877696;29;20235;-75
2021/05/30 08:19:17;;;;;;;0.50;0.50;;;14.70;89.80;;;;;;4878054;29;20291;-75
2021/05/30 08:21:45;;;;;;;0.50;0.50;;;14.80;90.40;;;;;;4877750;29;20658;-72
2021/05/30 08:24:12;;;;;;;0.50;0.50;;;15.00;88.10;;;;;;4878085;29;20244;-75
2021/05/30 08:26:56;;;;;;;0.50;0.50;;;14.70;88.20;;;;;;4877424;29;20232;-74
2021/05/30 08:29:25;;;;;;;0.60;0.60;;;14.50;88.80;;;;;;4877899;29;20268;-69
2021/05/30 08:31:53;;;;;;;0.60;0.60;;;14.50;89.70;;;;;;4877763;29;20241;-67
2021/05/30 08:34:21;;;;;;;0.60;0.60;;;14.20;88.30;;;;;;4878152;29;20343;-70
2021/05/30 08:36:49;;;;;;;0.60;0.60;;;14.30;88.60;;;;;;4877501;29;20232;-69
2021/05/30 08:39:16;;;;;;;0.60;0.60;;;14.30;88.20;;;;;;4877694;29;20244;-70
2021/05/30 08:41:44;;;;;;;0.65;0.65;;;14.20;89.60;;;;;;4877867;29;20365;-69
2021/05/30 08:44:12;;;;;;;0.70;0.70;;;14.30;89.50;;;;;;4877622;29;20208;-68
2021/05/30 08:46:41;;;;;;;0.60;0.60;;;14.50;90.10;;;;;;4877595;29;20600;-69
2021/05/30 08:49:10;;;;;;;0.70;0.70;;;14.60;88.80;;;;;;4880738;29;20662;-68
2021/05/30 08:51:39;;;;;;;0.40;0.40;;;14.50;85.70;;;;;;4881242;29;20267;-72
2021/05/30 08:54:09;;;;;;;0.50;0.50;;;14.50;87.10;;;;;;4881095;29;20219;-74
2021/05/30 08:56:38;;;;;;;0.50;0.50;;;14.50;96.00;;;;;;4881270;29;20301;-75
2021/05/30 08:59:27;;;;;;;0.50;0.50;;;14.40;89.70;;;;;;4881131;29;20252;-75
2021/05/30 09:01:57;;;;;;;0.60;0.60;;;14.30;85.90;;;;;;4880874;29;20212;-76
2021/05/30 09:04:32;;;;;;;0.60;0.60;;;14.20;90.40;;;;;;4880990;29;20208;-75
2021/05/30 09:06:59;;;;;;;0.70;0.70;;;14.40;91.40;;;;;;4881495;29;20227;-75
2021/05/30 09:09:36;;;;;;;0.57;0.57;;;14.40;90.00;;;;;;4880743;29;20240;-75
2021/05/30 09:12:04;;;;;;;0.60;0.60;;;14.50;87.80;;;;;;4880531;29;20196;-74
2021/05/30 09:14:40;;;;;;;0.60;0.60;;;14.80;90.80;;;;;;4880501;29;20222;-74
2021/05/30 09:17:10;;;;;;;0.52;0.52;;;15.10;87.90;;;;;;4880176;29;20212;-75
2021/05/30 09:19:42;;;;;;;0.50;0.50;;;15.30;89.50;;;;;;4880690;29;20196;-77
2021/05/30 09:22:24;;;;;;;0.60;0.60;;;15.30;89.00;;;;;;4880616;29;20383;-77
2021/05/30 09:25:10;;;;;;;0.60;0.60;;;14.70;93.60;;;;;;4880761;29;20248;-76
2021/05/30 09:27:42;;;;;;;0.70;0.70;;;14.90;87.20;;;;;;4876162;29;20248;-78
2021/05/30 09:30:22;;;;;;;0.60;0.60;;;14.90;88.80;;;;;;4872919;29;20563;-78
2021/05/30 09:33:13;;;;;;;0.70;0.70;;;15.10;87.90;;;;;;4863700;29;20205;-76
2021/05/30 09:35:52;;;;;;;0.50;0.50;;;15.30;91.80;;;;;;4879742;29;20227;-75
2021/05/30 09:38:28;;;;;;;0.55;0.55;;;15.70;90.80;;;;;;4881254;29;20208;-76
2021/05/30 09:40:57;;;;;;;0.60;0.60;;;16.00;85.30;;;;;;4886644;29;20207;-76
2021/05/30 09:43:25;;;;;;;0.60;0.60;;;15.90;82.90;;;;;;4880696;29;20223;-76
2021/05/30 09:46:05;;;;;;;0.50;0.50;;;15.90;85.40;;;;;;4880066;29;20228;-74
2021/05/30 09:48:37;;;;;;;0.55;0.55;;;15.50;84.60;;;;;;4880158;29;20211;-74
2021/05/30 09:51:26;;;;;;;0.60;0.60;;;15.40;87.30;;;;;;4880241;29;20268;-75
2021/05/30 09:53:56;;;;;;;0.60;0.60;;;15.60;90.30;;;;;;4880459;29;20215;-75
2021/05/30 09:56:29;;;;;;;0.60;0.60;;;15.80;90.30;;;;;;4879095;29;20236;-75
2021/05/30 09:58:57;;;;;;;0.60;0.60;;;16.10;90.70;;;;;;4878414;29;20248;-76
2021/05/30 10:01:25;;;;;;;0.60;0.60;;;16.30;90.50;;;;;;4879842;29;20216;-73
2021/05/30 10:03:56;;;;;;;0.50;0.50;;;16.40;86.40;;;;;;4879901;29;20264;-74
2021/05/30 10:06:23;;;;;;;0.60;0.60;;;16.50;90.80;;;;;;4879835;29;20231;-77
2021/05/30 10:08:51;;;;;;;0.40;0.40;;;16.30;84.30;;;;;;4879875;29;20276;-75
2021/05/30 10:11:19;;;;;;;0.52;0.52;;;16.30;89.70;;;;;;4879842;29;20572;-74
2021/05/30 10:13:46;;;;;;;0.60;0.60;;;16.20;87.90;;;;;;4879846;29;20210;-76
2021/05/30 10:16:14;;;;;;;0.60;0.60;;;16.30;88.40;;;;;;4879364;29;20697;-76
2021/05/30 10:18:46;;;;;;;0.60;0.60;;;16.20;88.10;;;;;;4879958;29;20212;-76
2021/05/30 10:21:17;;;;;;;0.50;0.50;;;16.40;85.00;;;;;;4879765;29;20263;-76
2021/05/30 10:23:50;;;;;;;0.40;0.40;;;16.60;90.10;;;;;;4879301;29;20372;-75
2021/05/30 10:26:19;;;;;;;0.50;0.50;;;16.90;90.30;;;;;;4913288;23;20264;-79
2021/05/30 10:28:54;;;;;;;0.40;0.40;;;17.40;94.70;;;;;;4902983;29;20234;-80
2021/05/30 10:31:24;;;;;;;0.40;0.40;;;17.50;87.40;;;;;;4912341;29;20203;-80
2021/05/30 10:34:20;;;;;;;0.40;0.40;;;17.50;92.50;;;;;;4913709;29;20203;-79
2021/05/30 10:37:23;;;;;;;0.40;0.40;;;17.60;84.20;;;;;;4889928;29;20235;-78
2021/05/30 10:39:56;;;;;;;0.40;0.40;;;17.50;92.20;;;;;;4882982;29;20215;-80
2021/05/30 10:42:25;;;;;;;0.40;0.40;;;17.70;86.20;;;;;;4883945;29;20232;-80
2021/05/30 10:45:04;;;;;;;0.40;0.40;;;17.70;79.80;;;;;;4883459;29;20215;-79
2021/05/30 10:48:17;;;;;;;0.40;0.40;;;17.80;85.80;;;;;;4880970;29;20236;-79
2021/05/30 10:50:57;;;;;;;0.50;0.50;;;18.10;91.10;;;;;;4881096;29;20200;-80
2021/05/30 10:53:41;;;;;;;0.40;0.40;;;18.00;81.10;;;;;;4887777;29;20208;-80
2021/05/30 10:56:29;;;;;;;0.40;0.40;;;18.10;83.70;;;;;;4896992;29;20232;-79
2021/05/30 10:59:26;;;;;;;0.40;0.40;;;18.20;90.90;;;;;;4899799;29;20208;-78
2021/05/30 11:01:56;;;;;;;0.60;0.60;;;18.10;82.80;;;;;;4899721;29;20231;-79
2021/05/30 11:04:31;;;;;;;0.40;0.40;;;18.10;81.10;;;;;;4897581;29;20239;-80
2021/05/30 11:07:00;;;;;;;0.40;0.40;;;18.20;84.30;;;;;;4885061;29;20264;-80
2021/05/30 11:10:02;;;;;;;0.52;0.52;;;18.20;81.00;;;;;;4884622;29;20226;-79
2021/05/30 11:12:32;;;;;;;0.40;0.40;;;18.30;81.60;;;;;;4885236;29;20207;-80
2021/05/30 11:15:19;;;;;;;0.50;0.50;;;18.20;81.80;;;;;;4883000;29;20203;-79
2021/05/30 11:17:49;;;;;;;0.50;0.50;;;18.00;92.20;;;;;;4882180;29;20212;-80
2021/05/30 11:20:18;;;;;;;0.47;0.47;;;18.50;92.00;;;;;;4883697;29;20530;-80
2021/05/30 11:22:48;;;;;;;0.50;0.50;;;18.00;83.60;;;;;;4883357;29;20232;-80
2021/05/30 11:25:19;;;;;;;0.40;0.40;;;18.00;94.80;;;;;;4883433;29;20236;-79
2021/05/30 11:27:56;;;;;;;0.50;0.50;;;17.80;89.00;;;;;;4883088;29;20212;-80
2021/05/30 11:30:43;;;;;;;0.50;0.50;;;17.70;93.20;;;;;;4883905;29;20802;-80
2021/05/30 11:33:15;;;;;;;0.40;0.40;;;17.80;85.80;;;;;;4884350;29;20646;-81
2021/05/30 11:35:42;;;;;;;0.40;0.40;;;17.80;87.30;;;;;;4883114;29;20654;-81
2021/05/30 11:38:10;;;;;;;0.40;0.40;;;18.00;82.30;;;;;;4883373;29;20610;-80
2021/05/30 11:40:39;;;;;;;0.40;0.40;;;18.00;86.40;;;;;;4887266;29;20208;-80
2021/05/30 11:43:17;;;;;;;0.40;0.40;;;18.10;85.20;;;;;;4887942;29;20223;-81
2021/05/30 11:45:46;;;;;;;0.40;0.40;;;17.90;83.00;;;;;;4883747;29;20287;-80
2021/05/30 11:48:16;;;;;;;0.50;0.50;;;18.20;88.50;;;;;;4884764;29;20627;-79
2021/05/30 11:50:51;;;;;;;0.50;0.50;;;18.00;80.60;;;;;;4887688;29;20200;-80
2021/05/30 11:53:27;;;;;;;0.40;0.40;;;17.80;81.10;;;;;;4886467;29;20192;-80
2021/05/30 11:55:56;;;;;;;0.40;0.40;;;17.90;81.90;;;;;;4880832;29;20252;-80
2021/05/30 11:58:24;;;;;;;0.50;0.50;;;18.00;82.10;;;;;;4886090;29;20196;-79
2021/05/30 12:00:55;;;;;;;0.40;0.40;;;18.20;83.50;;;;;;4886490;29;20238;-80
2021/05/30 12:03:23;;;;;;;0.40;0.40;;;17.90;92.00;;;;;;4888635;29;20212;-81
2021/05/30 12:05:57;;;;;;;0.50;0.50;;;17.80;91.50;;;;;;4883375;29;20605;-80
2021/05/30 12:08:24;;;;;;;0.50;0.50;;;18.00;82.00;;;;;;4882389;29;20204;-81
2021/05/30 12:10:58;;;;;;;0.50;0.50;;;18.30;83.70;;;;;;4893648;29;20200;-81
2021/05/30 12:13:27;;;;;;;0.50;0.50;;;18.60;91.00;;;;;;4890762;29;20192;-81
2021/05/30 12:15:55;;;;;;;0.50;0.50;;;18.50;81.50;;;;;;4886685;29;20228;-81
2021/05/30 12:18:23;;;;;;;0.50;0.50;;;18.50;82.00;;;;;;4881587;29;20212;-80
2021/05/30 12:20:51;;;;;;;0.50;0.50;;;18.70;81.40;;;;;;4883581;29;20208;-81
2021/05/30 12:23:20;;;;;;;0.40;0.40;;;18.50;80.30;;;;;;4885003;29;20224;-80
2021/05/30 12:25:52;;;;;;;0.50;0.50;;;18.70;86.30;;;;;;4885771;29;20705;-78
2021/05/30 12:28:22;;;;;;;0.50;0.50;;;18.70;81.10;;;;;;4884030;29;20207;-80
2021/05/30 12:30:51;;;;;;;0.50;0.50;;;18.40;78.60;;;;;;4881291;29;20200;-76
2021/05/30 12:33:19;;;;;;;0.50;0.50;;;18.40;90.00;;;;;;4884424;29;20188;-77
2021/05/30 12:35:49;;;;;;;0.32;0.32;;;18.50;78.70;;;;;;4884199;29;20293;-77
2021/05/30 12:38:19;;;;;;;0.40;0.40;;;18.60;91.30;;;;;;4881388;29;20207;-77
2021/05/30 12:40:48;;;;;;;0.40;0.40;;;18.50;81.80;;;;;;4881666;29;20327;-77
2021/05/30 12:43:29;;;;;;;0.40;0.40;;;18.30;79.20;;;;;;4883666;29;20270;-77
2021/05/30 12:46:02;;;;;;;0.40;0.40;;;18.40;83.00;;;;;;4884252;29;20701;-79
2021/05/30 12:48:41;;;;;;;0.50;0.50;;;18.40;84.80;;;;;;4884705;29;20204;-78
2021/05/30 12:51:20;;;;;;;0.50;0.50;;;18.50;83.60;;;;;;4884282;29;20196;-79
2021/05/30 12:53:47;;;;;;;0.40;0.40;;;18.50;82.00;;;;;;4884344;29;20232;-78
2021/05/30 12:56:26;;;;;;;0.40;0.40;;;18.70;78.40;;;;;;4884189;29;20228;-78
2021/05/30 12:59:13;;;;;;;0.40;0.40;;;19.10;77.10;;;;;;4884654;29;20216;-79
2021/05/30 13:01:45;;;;;;;0.40;0.40;;;19.30;77.40;;;;;;4883601;29;20742;-78
2021/05/30 13:04:25;;;;;;;0.40;0.40;;;19.60;76.00;;;;;;4883180;29;20224;-78
2021/05/30 13:07:01;;;;;;;0.50;0.50;;;19.70;78.00;;;;;;4883219;29;20232;-78
2021/05/30 13:09:41;;;;;;;0.40;0.40;;;19.60;78.40;;;;;;4883563;29;20207;-80
2021/05/30 13:12:31;;;;;;;0.40;0.40;;;19.30;77.10;;;;;;4882453;29;20564;-80
2021/05/30 13:15:07;;;;;;;0.40;0.40;;;19.30;91.60;;;;;;4882624;29;20213;-79
2021/05/30 13:17:36;;;;;;;0.40;0.40;;;19.30;82.50;;;;;;4882912;29;20244;-79
2021/05/30 13:20:09;;;;;;;0.40;0.40;;;19.40;80.10;;;;;;4882733;29;20645;-78
2021/05/30 13:22:50;;;;;;;0.30;0.30;;;19.60;78.00;;;;;;4883010;29;20211;-79
2021/05/30 13:25:30;;;;;;;0.40;0.40;;;19.70;90.40;;;;;;4882777;29;20192;-79
2021/05/30 13:28:22;;;;;;;0.40;0.40;;;19.80;80.50;;;;;;4882391;29;20242;-79
2021/05/30 13:30:53;;;;;;;0.50;0.50;;;20.00;74.80;;;;;;4883065;29;20639;-79
2021/05/30 13:33:43;;;;;;;0.40;0.40;;;20.20;75.00;;;;;;4882366;29;20230;-79
2021/05/30 13:36:12;;;;;;;0.30;0.30;;;20.10;74.70;;;;;;4883254;29;20657;-79
2021/05/30 13:38:40;;;;;;;0.30;0.30;;;19.90;75.20;;;;;;4883513;29;20219;-79
2021/05/30 13:41:16;;;;;;;0.40;0.40;;;19.50;75.10;;;;;;4883329;29;20677;-79
2021/05/30 13:43:44;;;;;;;0.30;0.30;;;19.50;78.40;;;;;;4883921;29;20227;-80
2021/05/30 13:46:11;;;;;;;0.30;0.30;;;19.50;75.50;;;;;;4883819;29;20228;-79
2021/05/30 13:48:39;;;;;;;0.40;0.40;;;19.30;74.00;;;;;;4884309;29;20204;-80
2021/05/30 13:51:10;;;;;;;0.30;0.30;;;19.40;75.90;;;;;;4884643;29;20208;-80
2021/05/30 13:53:39;;;;;;;0.50;0.50;;;19.50;74.10;;;;;;4885679;29;20271;-79
2021/05/30 13:56:07;;;;;;;0.40;0.40;;;19.40;75.50;;;;;;4882448;29;20224;-79
2021/05/30 13:58:35;;;;;;;0.30;0.30;;;19.50;77.20;;;;;;4882929;29;20670;-79
2021/05/30 14:01:03;;;;;;;0.30;0.30;;;19.30;76.20;;;;;;4882886;29;20638;-77
2021/05/30 14:03:31;;;;;;;0.50;0.50;;;19.30;76.70;;;;;;4882784;29;20286;-80
2021/05/30 14:05:59;;;;;;;0.30;0.30;;;19.30;76.00;;;;;;4882445;29;20287;-79
2021/05/30 14:08:27;;;;;;;0.30;0.30;;;19.40;76.40;;;;;;4882878;29;20211;-79
2021/05/30 14:10:54;;;;;;;0.40;0.40;;;19.50;76.50;;;;;;4882957;29;20216;-79
2021/05/30 14:13:22;;;;;;;0.40;0.40;;;19.40;75.80;;;;;;4882713;29;20215;-79
2021/05/30 14:15:49;;;;;;;0.40;0.40;;;19.30;73.70;;;;;;4882875;29;20224;-78
2021/05/30 14:18:17;;;;;;;0.40;0.40;;;19.40;75.00;;;;;;4882929;29;20212;-79
2021/05/30 14:20:44;;;;;;;0.40;0.40;;;19.60;77.50;;;;;;4883172;29;20295;-80
2021/05/30 14:23:11;;;;;;;0.30;0.30;;;19.70;75.10;;;;;;4882814;29;20204;-79
2021/05/30 14:25:41;;;;;;;0.30;0.30;;;19.70;77.50;;;;;;4882754;29;20716;-80
2021/05/30 14:28:09;;;;;;;0.30;0.30;;;19.70;74.80;;;;;;4885143;29;20647;-79
2021/05/30 14:30:36;;;;;;;0.30;0.30;;;19.60;77.70;;;;;;4887606;29;20229;-79
2021/05/30 14:33:04;;;;;;;0.40;0.40;;;19.20;73.50;;;;;;4890426;29;20401;-78
2021/05/30 14:35:32;;;;;;;0.40;0.40;;;19.10;78.30;;;;;;4887565;29;20280;-79
2021/05/30 14:37:59;;;;;;;0.30;0.30;;;19.00;79.30;;;;;;4881880;29;20212;-78
2021/05/30 14:40:26;;;;;;;0.30;0.30;;;18.90;78.30;;;;;;4880412;29;20645;-76
2021/05/30 14:42:55;;;;;;;0.40;0.40;;;18.80;76.80;;;;;;4879573;29;20613;-77
2021/05/30 14:45:22;;;;;;;0.32;0.32;;;19.10;91.30;;;;;;4878276;29;20630;-74
2021/05/30 14:47:50;;;;;;;0.50;0.50;;;19.00;75.40;;;;;;4878802;29;20208;-73
2021/05/30 14:50:17;;;;;;;0.30;0.30;;;19.20;76.70;;;;;;4879070;29;20237;-74
2021/05/30 14:52:45;;;;;;;0.50;0.50;;;19.50;80.50;;;;;;4880043;29;20204;-79
2021/05/30 14:55:15;;;;;;;0.40;0.40;;;19.70;88.40;;;;;;4880865;29;20275;-78
2021/05/30 14:57:43;;;;;;;0.32;0.32;;;19.70;73.50;;;;;;4879301;29;20204;-79
2021/05/30 15:00:13;;;;;;;0.40;0.40;;;19.50;72.20;;;;;;4880315;29;20207;-78
2021/05/30 15:02:42;;;;;;;0.30;0.30;;;19.30;77.10;;;;;;4878508;29;20212;-79
2021/05/30 15:05:12;;;;;;;0.30;0.30;;;19.20;91.90;;;;;;4881148;29;20284;-79
2021/05/30 15:07:40;;;;;;;0.40;0.40;;;19.10;78.90;;;;;;4880392;29;20661;-77
2021/05/30 15:10:08;;;;;;;0.50;0.50;;;18.90;75.60;;;;;;4881252;29;20204;-79
2021/05/30 15:12:36;;;;;;;0.40;0.40;;;18.90;79.20;;;;;;4881613;29;20208;-79
2021/05/30 15:15:06;;;;;;;0.40;0.40;;;19.00;76.00;;;;;;4880859;29;20211;-77
2021/05/30 15:17:34;;;;;;;0.35;0.35;;;19.10;77.60;;;;;;4881738;29;20658;-80
2021/05/30 15:20:02;;;;;;;0.30;0.30;;;19.20;75.70;;;;;;4880923;29;20290;-79
2021/05/30 15:22:30;;;;;;;0.30;0.30;;;19.00;75.80;;;;;;4868597;29;20209;-80
2021/05/30 15:24:58;;;;;;;0.40;0.40;;;19.00;84.40;;;;;;4862535;29;20260;-77
2021/05/30 15:27:25;;;;;;;0.40;0.40;;;19.00;80.20;;;;;;4866258;29;20236;-78
2021/05/30 15:29:52;;;;;;;0.40;0.40;;;19.00;76.50;;;;;;4877279;29;20212;-81
2021/05/30 15:32:20;;;;;;;0.30;0.30;;;18.90;80.90;;;;;;4878261;29;20211;-81
2021/05/30 15:34:48;;;;;;;0.40;0.40;;;18.80;78.60;;;;;;4880214;29;20196;-79
2021/05/30 15:37:15;;;;;;;0.50;0.50;;;18.70;76.60;;;;;;4880015;29;20220;-79
2021/05/30 15:39:43;;;;;;;0.40;0.40;;;18.70;78.10;;;;;;4880624;29;20256;-80
2021/05/30 15:42:11;;;;;;;0.40;0.40;;;18.80;73.90;;;;;;4880280;29;20212;-80
2021/05/30 15:44:38;;;;;;;0.40;0.40;;;18.80;80.20;;;;;;4880950;29;20216;-80
2021/05/30 15:47:06;;;;;;;0.30;0.30;;;18.80;75.90;;;;;;4879868;29;20229;-80
2021/05/30 15:49:34;;;;;;;0.50;0.50;;;18.80;80.10;;;;;;4879700;29;20211;-80
2021/05/30 15:52:02;;;;;;;0.40;0.40;;;18.80;78.10;;;;;;4878795;29;20678;-79
2021/05/30 15:54:30;;;;;;;0.40;0.40;;;18.80;78.10;;;;;;4879845;29;20256;-80
2021/05/30 15:56:57;;;;;;;0.40;0.40;;;18.80;80.40;;;;;;4881412;29;20262;-79
2021/05/30 15:59:25;;;;;;;0.40;0.40;;;18.70;74.90;;;;;;4884917;29;20200;-79
2021/05/30 16:01:53;;;;;;;0.30;0.30;;;18.60;75.50;;;;;;4881824;29;20200;-79
2021/05/30 16:04:20;;;;;;;0.30;0.30;;;18.50;77.60;;;;;;4881916;29;20224;-79
2021/05/30 16:06:48;;;;;;;0.40;0.40;;;18.50;78.10;;;;;;4881220;29;20291;-79
2021/05/30 16:09:16;;;;;;;0.30;0.30;;;18.50;79.40;;;;;;4881945;29;20242;-78
2021/05/30 16:11:43;;;;;;;0.40;0.40;;;18.50;74.90;;;;;;4882315;29;20260;-78
2021/05/30 16:14:11;;;;;;;0.40;0.40;;;18.40;78.50;;;;;;4882107;29;20252;-78
2021/05/30 16:16:39;;;;;;;0.30;0.30;;;18.50;80.30;;;;;;4880920;29;20271;-79
2021/05/30 16:19:06;;;;;;;0.50;0.50;;;18.50;80.40;;;;;;4882477;29;20211;-78
2021/05/30 16:21:34;;;;;;;0.50;0.50;;;18.40;77.50;;;;;;4884271;29;20208;-78
2021/05/30 16:24:03;;;;;;;0.30;0.30;;;18.50;78.30;;;;;;4883561;29;20204;-77
2021/05/30 16:26:32;;;;;;;0.40;0.40;;;18.70;78.30;;;;;;4884416;29;20272;-78
2021/05/30 16:28:59;;;;;;;0.40;0.40;;;18.70;78.60;;;;;;4893014;29;20258;-79
2021/05/30 16:31:27;;;;;;;0.30;0.30;;;18.80;78.50;;;;;;4882700;29;20235;-79
2021/05/30 16:33:55;;;;;;;0.30;0.30;;;18.80;79.90;;;;;;4882568;29;20208;-79
2021/05/30 16:36:22;;;;;;;0.40;0.40;;;19.00;77.30;;;;;;4883681;29;20259;-76
2021/05/30 16:38:50;;;;;;;0.40;0.40;;;19.20;80.90;;;;;;4884094;29;20220;-78
2021/05/30 16:41:17;;;;;;;0.40;0.40;;;19.30;74.60;;;;;;4884631;29;20287;-76
2021/05/30 16:43:45;;;;;;;0.40;0.40;;;19.30;74.60;;;;;;4884145;29;20241;-78
2021/05/30 16:46:13;;;;;;;0.40;0.40;;;19.50;78.10;;;;;;4883234;29;20697;-78
2021/05/30 16:48:40;;;;;;;0.30;0.30;;;19.40;79.10;;;;;;4884669;29;20207;-80
2021/05/30 16:51:08;;;;;;;0.30;0.30;;;19.30;75.40;;;;;;4883752;29;20255;-79
2021/05/30 16:53:35;;;;;;;0.40;0.40;;;19.30;75.90;;;;;;4884423;29;20205;-78
2021/05/30 16:56:03;;;;;;;0.30;0.30;;;19.20;76.10;;;;;;4882340;29;20709;-80
2021/05/30 16:58:30;;;;;;;0.30;0.30;;;19.00;76.00;;;;;;4883987;29;20621;-80
2021/05/30 17:00:58;;;;;;;0.40;0.40;;;18.90;76.00;;;;;;4882454;29;20240;-80
2021/05/30 17:03:26;;;;;;;0.30;0.30;;;18.90;80.20;;;;;;4885016;29;20367;-80
2021/05/30 17:05:53;;;;;;;0.30;0.30;;;18.80;77.60;;;;;;4885706;29;20296;-80
2021/05/30 17:08:21;;;;;;;0.30;0.30;;;18.90;80.50;;;;;;4884783;29;20201;-80
2021/05/30 17:10:48;;;;;;;0.30;0.30;;;18.90;76.70;;;;;;4887023;29;20211;-81
2021/05/30 17:13:17;;;;;;;0.30;0.30;;;18.90;77.10;;;;;;4887876;29;20712;-82
2021/05/30 17:15:48;;;;;;;0.30;0.30;;;19.00;77.70;;;;;;4893179;29;20276;-80